sensor_id;sensor_type;location;lat;lon;timestamp;pressure;altitude;pressure_sealevel;temperature;humidity
72909;BME280;61051;62.624;17.950;2024-01-27T00:00:23;100667.14;;;-1.83;96.13
72909;BME280;61051;62.624;17.950;2024-01-27T00:02:51;100668.50;;;-1.82;95.74
72909;BME280;61051;62.624;17.950;2024-01-27T00:05:20;100674.29;;;-1.77;94.49
72909;BME280;61051;62.624;17.950;2024-01-27T00:07:48;100678.58;;;-1.79;93.92
72909;BME280;61051;62.624;17.950;2024-01-27T00:10:17;100684.85;;;-1.76;93.00
72909;BME280;61051;62.624;17.950;2024-01-27T00:12:45;100688.16;;;-1.76;92.94
72909;BME280;61051;62.624;17.950;2024-01-27T00:15:14;100695.47;;;-1.94;93.74
72909;BME280;61051;62.624;17.950;2024-01-27T00:17:43;100702.90;;;-1.96;94.38
72909;BME280;61051;62.624;17.950;2024-01-27T00:20:11;100703.85;;;-1.74;93.23
72909;BME280;61051;62.624;17.950;2024-01-27T00:22:45;100702.63;;;-1.85;92.33
72909;BME280;61051;62.624;17.950;2024-01-27T00:25:13;100702.08;;;-1.90;93.62
72909;BME280;61051;62.624;17.950;2024-01-27T00:27:42;100700.98;;;-1.93;93.50
72909;BME280;61051;62.624;17.950;2024-01-27T00:30:11;100702.60;;;-2.09;93.57
72909;BME280;61051;62.624;17.950;2024-01-27T00:32:39;100700.39;;;-2.18;93.59
72909;BME280;61051;62.624;17.950;2024-01-27T00:35:08;100702.46;;;-2.10;93.88
72909;BME280;61051;62.624;17.950;2024-01-27T00:37:36;100711.42;;;-2.09;93.36
72909;BME280;61051;62.624;17.950;2024-01-27T00:40:07;100715.54;;;-2.22;91.84
72909;BME280;61051;62.624;17.950;2024-01-27T00:42:35;100711.30;;;-2.38;93.52
72909;BME280;61051;62.624;17.950;2024-01-27T00:45:05;100707.88;;;-2.47;94.61
72909;BME280;61051;62.624;17.950;2024-01-27T00:47:34;100707.89;;;-2.63;94.33
72909;BME280;61051;62.624;17.950;2024-01-27T00:50:03;100703.10;;;-2.82;95.23
72909;BME280;61051;62.624;17.950;2024-01-27T00:52:31;100702.55;;;-2.89;95.81
72909;BME280;61051;62.624;17.950;2024-01-27T00:55:00;100702.55;;;-2.84;96.57
72909;BME280;61051;62.624;17.950;2024-01-27T00:57:28;100705.47;;;-2.80;95.92
72909;BME280;61051;62.624;17.950;2024-01-27T00:59:57;100704.13;;;-2.89;95.74
72909;BME280;61051;62.624;17.950;2024-01-27T01:02:26;100717.36;;;-2.99;94.76
72909;BME280;61051;62.624;17.950;2024-01-27T01:04:54;100722.32;;;-3.06;95.91
72909;BME280;61051;62.624;17.950;2024-01-27T01:07:23;100729.00;;;-3.13;95.92
72909;BME280;61051;62.624;17.950;2024-01-27T01:09:51;100739.41;;;-3.40;93.36
72909;BME280;61051;62.624;17.950;2024-01-27T01:12:20;100743.65;;;-3.58;94.29
72909;BME280;61051;62.624;17.950;2024-01-27T01:14:49;100750.62;;;-3.67;96.53
72909;BME280;61051;62.624;17.950;2024-01-27T01:17:17;100760.03;;;-3.64;96.59
72909;BME280;61051;62.624;17.950;2024-01-27T01:19:46;100768.66;;;-3.76;96.61
72909;BME280;61051;62.624;17.950;2024-01-27T01:22:14;100771.79;;;-3.76;97.89
72909;BME280;61051;62.624;17.950;2024-01-27T01:24:43;100779.38;;;-3.50;99.84
72909;BME280;61051;62.624;17.950;2024-01-27T01:27:12;100784.48;;;-3.36;99.57
72909;BME280;61051;62.624;17.950;2024-01-27T01:29:40;100790.21;;;-3.29;97.37
72909;BME280;61051;62.624;17.950;2024-01-27T01:32:09;100798.78;;;-3.60;94.05
72909;BME280;61051;62.624;17.950;2024-01-27T01:34:37;100805.12;;;-3.91;94.80
72909;BME280;61051;62.624;17.950;2024-01-27T01:37:06;100806.37;;;-3.69;97.68
72909;BME280;61051;62.624;17.950;2024-01-27T01:39:35;100808.48;;;-3.64;96.97
72909;BME280;61051;62.624;17.950;2024-01-27T01:42:04;100804.83;;;-3.72;96.51
72909;BME280;61051;62.624;17.950;2024-01-27T01:44:32;100803.90;;;-3.85;96.17
72909;BME280;61051;62.624;17.950;2024-01-27T01:47:02;100814.84;;;-3.93;95.78
72909;BME280;61051;62.624;17.950;2024-01-27T01:49:31;100824.92;;;-3.94;96.77
72909;BME280;61051;62.624;17.950;2024-01-27T01:52:00;100820.93;;;-3.90;98.84
72909;BME280;61051;62.624;17.950;2024-01-27T01:54:30;100823.76;;;-3.67;97.62
72909;BME280;61051;62.624;17.950;2024-01-27T01:56:59;100823.15;;;-3.56;97.74
72909;BME280;61051;62.624;17.950;2024-01-27T01:59:27;100827.78;;;-3.70;96.62
72909;BME280;61051;62.624;17.950;2024-01-27T02:01:56;100832.82;;;-3.65;96.68
72909;BME280;61051;62.624;17.950;2024-01-27T02:04:24;100837.22;;;-3.78;96.56
72909;BME280;61051;62.624;17.950;2024-01-27T02:06:53;100846.50;;;-3.75;97.71
72909;BME280;61051;62.624;17.950;2024-01-27T02:09:22;100849.77;;;-3.78;97.36
72909;BME280;61051;62.624;17.950;2024-01-27T02:11:50;100854.48;;;-3.80;97.36
72909;BME280;61051;62.624;17.950;2024-01-27T02:14:19;100855.92;;;-3.80;97.17
72909;BME280;61051;62.624;17.950;2024-01-27T02:16:48;100858.31;;;-3.64;98.54
72909;BME280;61051;62.624;17.950;2024-01-27T02:19:16;100860.19;;;-3.58;97.78
72909;BME280;61051;62.624;17.950;2024-01-27T02:21:45;100857.25;;;-3.57;97.26
72909;BME280;61051;62.624;17.950;2024-01-27T02:24:13;100868.49;;;-3.54;96.70
72909;BME280;61051;62.624;17.950;2024-01-27T02:26:42;100869.47;;;-3.63;95.84
72909;BME280;61051;62.624;17.950;2024-01-27T02:29:11;100869.44;;;-3.61;96.51
72909;BME280;61051;62.624;17.950;2024-01-27T02:31:39;100870.37;;;-3.40;96.93
72909;BME280;61051;62.624;17.950;2024-01-27T02:34:08;100869.76;;;-3.35;95.43
72909;BME280;61051;62.624;17.950;2024-01-27T02:36:37;100868.69;;;-3.17;94.96
72909;BME280;61051;62.624;17.950;2024-01-27T02:39:05;100870.01;;;-3.19;94.79
72909;BME280;61051;62.624;17.950;2024-01-27T02:41:34;100873.31;;;-3.06;94.87
72909;BME280;61051;62.624;17.950;2024-01-27T02:44:03;100885.80;;;-2.88;93.11
72909;BME280;61051;62.624;17.950;2024-01-27T02:46:33;100888.79;;;-2.82;93.57
72909;BME280;61051;62.624;17.950;2024-01-27T02:49:02;100890.04;;;-2.74;92.98
72909;BME280;61051;62.624;17.950;2024-01-27T02:51:30;100892.90;;;-2.71;91.53
72909;BME280;61051;62.624;17.950;2024-01-27T02:53:59;100891.07;;;-2.67;91.71
72909;BME280;61051;62.624;17.950;2024-01-27T02:56:28;100897.05;;;-2.40;90.82
72909;BME280;61051;62.624;17.950;2024-01-27T02:58:56;100904.53;;;-2.59;90.41
72909;BME280;61051;62.624;17.950;2024-01-27T03:01:25;100905.97;;;-2.65;91.19
72909;BME280;61051;62.624;17.950;2024-01-27T03:03:53;100907.09;;;-2.63;91.67
72909;BME280;61051;62.624;17.950;2024-01-27T03:06:22;100909.25;;;-2.57;91.18
72909;BME280;61051;62.624;17.950;2024-01-27T03:08:51;100917.23;;;-2.73;91.03
72909;BME280;61051;62.624;17.950;2024-01-27T03:11:20;100917.85;;;-2.49;91.16
72909;BME280;61051;62.624;17.950;2024-01-27T03:13:48;100923.26;;;-2.54;90.64
72909;BME280;61051;62.624;17.950;2024-01-27T03:16:17;100922.61;;;-2.34;89.92
72909;BME280;61051;62.624;17.950;2024-01-27T03:18:46;100929.37;;;-2.44;89.73
72909;BME280;61051;62.624;17.950;2024-01-27T03:21:14;100932.21;;;-2.33;89.47
72909;BME280;61051;62.624;17.950;2024-01-27T03:23:43;100933.12;;;-2.38;89.33
72909;BME280;61051;62.624;17.950;2024-01-27T03:26:11;100931.24;;;-2.48;89.84
72909;BME280;61051;62.624;17.950;2024-01-27T03:28:40;100934.55;;;-2.54;89.47
72909;BME280;61051;62.624;17.950;2024-01-27T03:31:09;100938.00;;;-2.63;89.20
72909;BME280;61051;62.624;17.950;2024-01-27T03:33:38;100938.65;;;-2.60;89.57
72909;BME280;61051;62.624;17.950;2024-01-27T03:36:09;100939.35;;;-2.54;89.58
72909;BME280;61051;62.624;17.950;2024-01-27T03:38:39;100935.73;;;-2.69;89.96
72909;BME280;61051;62.624;17.950;2024-01-27T03:41:09;100936.66;;;-2.66;89.69
72909;BME280;61051;62.624;17.950;2024-01-27T03:43:38;100937.42;;;-2.81;90.45
72909;BME280;61051;62.624;17.950;2024-01-27T03:46:06;100939.06;;;-2.85;90.47
72909;BME280;61051;62.624;17.950;2024-01-27T03:48:35;100936.92;;;-2.99;91.40
72909;BME280;61051;62.624;17.950;2024-01-27T03:51:04;100950.40;;;-3.22;91.06
72909;BME280;61051;62.624;17.950;2024-01-27T03:53:32;100953.91;;;-3.32;90.01
72909;BME280;61051;62.624;17.950;2024-01-27T03:56:02;100967.52;;;-3.57;92.07
72909;BME280;61051;62.624;17.950;2024-01-27T03:58:32;100979.76;;;-3.80;90.69
72909;BME280;61051;62.624;17.950;2024-01-27T04:01:01;100995.77;;;-4.14;91.92
72909;BME280;61051;62.624;17.950;2024-01-27T04:03:29;101001.27;;;-4.38;93.47
72909;BME280;61051;62.624;17.950;2024-01-27T04:05:57;101001.08;;;-4.58;95.07
72909;BME280;61051;62.624;17.950;2024-01-27T04:08:26;101003.65;;;-4.63;95.63
72909;BME280;61051;62.624;17.950;2024-01-27T04:10:55;101014.95;;;-4.67;96.18
72909;BME280;61051;62.624;17.950;2024-01-27T04:13:23;101014.09;;;-4.59;97.15
72909;BME280;61051;62.624;17.950;2024-01-27T04:15:52;101013.02;;;-4.88;91.82
72909;BME280;61051;62.624;17.950;2024-01-27T04:18:21;101010.17;;;-5.13;94.95
72909;BME280;61051;62.624;17.950;2024-01-27T04:20:50;101010.84;;;-5.28;96.23
72909;BME280;61051;62.624;17.950;2024-01-27T04:23:19;101013.97;;;-5.20;98.22
72909;BME280;61051;62.624;17.950;2024-01-27T04:25:47;101025.43;;;-5.36;96.81
72909;BME280;61051;62.624;17.950;2024-01-27T04:28:17;101035.71;;;-5.38;98.17
72909;BME280;61051;62.624;17.950;2024-01-27T04:30:45;101035.79;;;-5.55;98.97
72909;BME280;61051;62.624;17.950;2024-01-27T04:33:14;101047.69;;;-5.48;100.00
72909;BME280;61051;62.624;17.950;2024-01-27T04:35:43;101053.71;;;-5.58;97.66
72909;BME280;61051;62.624;17.950;2024-01-27T04:38:11;101046.23;;;-5.53;99.53
72909;BME280;61051;62.624;17.950;2024-01-27T04:40:40;101049.78;;;-5.41;99.97
72909;BME280;61051;62.624;17.950;2024-01-27T04:43:09;101055.38;;;-5.30;100.00
72909;BME280;61051;62.624;17.950;2024-01-27T04:45:38;101054.04;;;-5.40;99.74
72909;BME280;61051;62.624;17.950;2024-01-27T04:48:07;101057.55;;;-5.41;99.87
72909;BME280;61051;62.624;17.950;2024-01-27T04:50:36;101061.52;;;-5.42;98.72
72909;BME280;61051;62.624;17.950;2024-01-27T04:53:04;101061.63;;;-5.51;98.63
72909;BME280;61051;62.624;17.950;2024-01-27T04:55:33;101065.49;;;-5.76;97.20
72909;BME280;61051;62.624;17.950;2024-01-27T04:58:03;101074.58;;;-5.75;98.99
72909;BME280;61051;62.624;17.950;2024-01-27T05:03:25;101078.57;;;-5.82;99.82
72909;BME280;61051;62.624;17.950;2024-01-27T05:05:54;101081.19;;;-5.79;100.00
72909;BME280;61051;62.624;17.950;2024-01-27T05:08:23;101078.77;;;-5.79;99.00
72909;BME280;61051;62.624;17.950;2024-01-27T05:10:52;101082.72;;;-5.73;100.00
72909;BME280;61051;62.624;17.950;2024-01-27T05:13:20;101087.75;;;-5.89;98.09
72909;BME280;61051;62.624;17.950;2024-01-27T05:15:49;101098.77;;;-6.05;97.26
72909;BME280;61051;62.624;17.950;2024-01-27T05:18:18;101103.05;;;-6.28;96.62
72909;BME280;61051;62.624;17.950;2024-01-27T05:20:46;101108.15;;;-6.28;100.00
72909;BME280;61051;62.624;17.950;2024-01-27T05:23:15;101111.30;;;-6.09;99.96
72909;BME280;61051;62.624;17.950;2024-01-27T05:25:44;101108.44;;;-5.86;100.00
72909;BME280;61051;62.624;17.950;2024-01-27T05:28:12;101113.49;;;-5.71;100.00
72909;BME280;61051;62.624;17.950;2024-01-27T05:30:41;101114.63;;;-5.92;99.24
72909;BME280;61051;62.624;17.950;2024-01-27T05:33:10;101115.75;;;-5.94;100.00
72909;BME280;61051;62.624;17.950;2024-01-27T05:35:39;101118.99;;;-6.04;97.74
72909;BME280;61051;62.624;17.950;2024-01-27T05:38:09;101131.91;;;-6.44;95.07
72909;BME280;61051;62.624;17.950;2024-01-27T05:40:38;101141.35;;;-6.59;96.50
72909;BME280;61051;62.624;17.950;2024-01-27T05:43:08;101142.89;;;-6.55;99.17
72909;BME280;61051;62.624;17.950;2024-01-27T05:45:36;101144.06;;;-6.25;100.00
72909;BME280;61051;62.624;17.950;2024-01-27T05:48:05;101148.07;;;-5.67;100.00
72909;BME280;61051;62.624;17.950;2024-01-27T05:50:33;101154.23;;;-5.12;100.00
72909;BME280;61051;62.624;17.950;2024-01-27T05:53:02;101157.36;;;-5.03;100.00
72909;BME280;61051;62.624;17.950;2024-01-27T05:55:31;101156.69;;;-4.94;100.00
72909;BME280;61051;62.624;17.950;2024-01-27T05:58:01;101153.31;;;-5.16;97.85
72909;BME280;61051;62.624;17.950;2024-01-27T06:00:29;101156.72;;;-5.56;97.31
72909;BME280;61051;62.624;17.950;2024-01-27T06:02:59;101150.00;;;-5.67;97.08
72909;BME280;61051;62.624;17.950;2024-01-27T06:05:27;101146.24;;;-5.74;99.04
72909;BME280;61051;62.624;17.950;2024-01-27T06:07:57;101151.74;;;-5.86;97.86
72909;BME280;61051;62.624;17.950;2024-01-27T06:10:25;101151.75;;;-6.12;97.81
72909;BME280;61051;62.624;17.950;2024-01-27T06:12:54;101152.50;;;-6.10;100.00
72909;BME280;61051;62.624;17.950;2024-01-27T06:15:23;101149.91;;;-5.89;100.00
72909;BME280;61051;62.624;17.950;2024-01-27T06:17:52;101152.97;;;-5.92;99.15
72909;BME280;61051;62.624;17.950;2024-01-27T06:20:21;101152.46;;;-6.07;99.54
72909;BME280;61051;62.624;17.950;2024-01-27T06:22:50;101157.54;;;-6.11;100.00
72909;BME280;61051;62.624;17.950;2024-01-27T06:25:20;101152.84;;;-6.21;100.00
72909;BME280;61051;62.624;17.950;2024-01-27T06:27:49;101150.06;;;-6.18;100.00
72909;BME280;61051;62.624;17.950;2024-01-27T06:30:18;101149.65;;;-6.30;99.85
72909;BME280;61051;62.624;17.950;2024-01-27T06:32:47;101150.45;;;-6.39;98.39
72909;BME280;61051;62.624;17.950;2024-01-27T06:35:16;101165.16;;;-6.42;99.95
72909;BME280;61051;62.624;17.950;2024-01-27T06:37:45;101166.73;;;-6.45;98.95
72909;BME280;61051;62.624;17.950;2024-01-27T06:40:14;101167.72;;;-6.68;96.24
72909;BME280;61051;62.624;17.950;2024-01-27T06:42:42;101177.08;;;-7.00;95.91
72909;BME280;61051;62.624;17.950;2024-01-27T06:45:11;101184.26;;;-7.04;98.08
72909;BME280;61051;62.624;17.950;2024-01-27T06:47:40;101188.17;;;-7.15;98.60
72909;BME280;61051;62.624;17.950;2024-01-27T06:50:10;101187.07;;;-7.17;98.86
72909;BME280;61051;62.624;17.950;2024-01-27T06:52:38;101179.82;;;-7.06;100.00
72909;BME280;61051;62.624;17.950;2024-01-27T06:55:07;101185.32;;;-7.21;99.91
72909;BME280;61051;62.624;17.950;2024-01-27T06:57:35;101197.38;;;-7.24;100.00
72909;BME280;61051;62.624;17.950;2024-01-27T07:00:06;101207.71;;;-7.21;100.00
72909;BME280;61051;62.624;17.950;2024-01-27T07:02:35;101206.00;;;-7.54;96.51
72909;BME280;61051;62.624;17.950;2024-01-27T07:05:04;101205.89;;;-7.70;98.73
72909;BME280;61051;62.624;17.950;2024-01-27T07:07:32;101210.22;;;-7.51;100.00
72909;BME280;61051;62.624;17.950;2024-01-27T07:10:01;101214.16;;;-7.34;100.00
72909;BME280;61051;62.624;17.950;2024-01-27T07:12:30;101220.88;;;-7.32;100.00
72909;BME280;61051;62.624;17.950;2024-01-27T07:14:59;101216.30;;;-7.18;100.00
72909;BME280;61051;62.624;17.950;2024-01-27T07:17:28;101216.96;;;-6.87;100.00
72909;BME280;61051;62.624;17.950;2024-01-27T07:19:56;101220.10;;;-6.96;100.00
72909;BME280;61051;62.624;17.950;2024-01-27T07:22:25;101215.71;;;-7.16;97.49
72909;BME280;61051;62.624;17.950;2024-01-27T07:24:54;101214.07;;;-7.77;89.74
72909;BME280;61051;62.624;17.950;2024-01-27T07:27:23;101229.93;;;-8.20;91.71
72909;BME280;61051;62.624;17.950;2024-01-27T07:29:52;101228.90;;;-8.30;95.68
72909;BME280;61051;62.624;17.950;2024-01-27T07:32:21;101227.30;;;-8.24;98.80
72909;BME280;61051;62.624;17.950;2024-01-27T07:34:51;101232.40;;;-8.16;98.93
72909;BME280;61051;62.624;17.950;2024-01-27T07:37:19;101244.58;;;-8.19;97.20
72909;BME280;61051;62.624;17.950;2024-01-27T07:39:48;101250.64;;;-8.18;97.81
72909;BME280;61051;62.624;17.950;2024-01-27T07:42:17;101267.71;;;-8.11;98.99
72909;BME280;61051;62.624;17.950;2024-01-27T07:44:46;101261.99;;;-8.18;99.59
72909;BME280;61051;62.624;17.950;2024-01-27T07:47:15;101248.50;;;-7.95;100.00
72909;BME280;61051;62.624;17.950;2024-01-27T07:49:44;101238.18;;;-7.85;100.00
72909;BME280;61051;62.624;17.950;2024-01-27T07:52:13;101237.77;;;-7.73;100.00
72909;BME280;61051;62.624;17.950;2024-01-27T07:54:41;101247.90;;;-7.48;99.94
72909;BME280;61051;62.624;17.950;2024-01-27T07:57:10;101248.49;;;-7.48;98.55
72909;BME280;61051;62.624;17.950;2024-01-27T07:59:39;101251.85;;;-7.67;93.29
72909;BME280;61051;62.624;17.950;2024-01-27T08:02:09;101257.03;;;-8.04;89.71
72909;BME280;61051;62.624;17.950;2024-01-27T08:04:38;101261.37;;;-8.33;92.63
72909;BME280;61051;62.624;17.950;2024-01-27T08:07:07;101272.92;;;-8.31;92.03
72909;BME280;61051;62.624;17.950;2024-01-27T08:09:36;101274.19;;;-8.40;94.74
72909;BME280;61051;62.624;17.950;2024-01-27T08:12:05;101269.97;;;-8.59;95.32
72909;BME280;61051;62.624;17.950;2024-01-27T08:14:33;101270.87;;;-8.55;93.83
72909;BME280;61051;62.624;17.950;2024-01-27T08:17:02;101265.18;;;-8.61;95.67
72909;BME280;61051;62.624;17.950;2024-01-27T08:19:31;101264.01;;;-8.48;95.94
72909;BME280;61051;62.624;17.950;2024-01-27T08:22:00;101262.18;;;-8.38;99.04
72909;BME280;61051;62.624;17.950;2024-01-27T08:24:29;101264.66;;;-8.16;100.00
72909;BME280;61051;62.624;17.950;2024-01-27T08:26:58;101270.03;;;-7.69;100.00
72909;BME280;61051;62.624;17.950;2024-01-27T08:29:27;101271.17;;;-7.59;100.00
72909;BME280;61051;62.624;17.950;2024-01-27T08:31:56;101262.48;;;-7.37;100.00
72909;BME280;61051;62.624;17.950;2024-01-27T08:34:25;101257.89;;;-7.52;96.54
72909;BME280;61051;62.624;17.950;2024-01-27T08:37:00;101252.34;;;-7.40;97.36
72909;BME280;61051;62.624;17.950;2024-01-27T08:39:28;101254.54;;;-7.27;98.51
72909;BME280;61051;62.624;17.950;2024-01-27T08:41:57;101264.26;;;-7.30;97.52
72909;BME280;61051;62.624;17.950;2024-01-27T08:44:26;101268.19;;;-7.38;95.67
72909;BME280;61051;62.624;17.950;2024-01-27T08:46:55;101265.27;;;-7.32;96.52
72909;BME280;61051;62.624;17.950;2024-01-27T08:49:24;101261.88;;;-7.32;96.95
72909;BME280;61051;62.624;17.950;2024-01-27T08:51:53;101267.23;;;-6.55;100.00
72909;BME280;61051;62.624;17.950;2024-01-27T08:54:22;101267.97;;;-5.44;100.00
72909;BME280;61051;62.624;17.950;2024-01-27T08:56:50;101275.85;;;-4.73;100.00
72909;BME280;61051;62.624;17.950;2024-01-27T08:59:19;101276.24;;;-3.96;100.00
72909;BME280;61051;62.624;17.950;2024-01-27T09:01:48;101261.97;;;-3.44;100.00
72909;BME280;61051;62.624;17.950;2024-01-27T09:04:17;101260.97;;;-3.29;96.49
72909;BME280;61051;62.624;17.950;2024-01-27T09:06:46;101265.53;;;-3.23;95.68
72909;BME280;61051;62.624;17.950;2024-01-27T09:09:14;101277.44;;;-2.90;95.66
72909;BME280;61051;62.624;17.950;2024-01-27T09:11:43;101283.60;;;-2.69;93.52
72909;BME280;61051;62.624;17.950;2024-01-27T09:14:12;101290.94;;;-2.64;92.24
72909;BME280;61051;62.624;17.950;2024-01-27T09:16:41;101295.35;;;-2.56;91.70
72909;BME280;61051;62.624;17.950;2024-01-27T09:19:10;101298.26;;;-2.51;90.06
72909;BME280;61051;62.624;17.950;2024-01-27T09:21:39;101291.04;;;-2.36;89.68
72909;BME280;61051;62.624;17.950;2024-01-27T09:24:09;101285.60;;;-2.57;86.15
72909;BME280;61051;62.624;17.950;2024-01-27T09:26:38;101291.23;;;-2.84;87.59
72909;BME280;61051;62.624;17.950;2024-01-27T09:29:08;101284.81;;;-3.13;89.58
72909;BME280;61051;62.624;17.950;2024-01-27T09:31:36;101284.23;;;-3.27;88.36
72909;BME280;61051;62.624;17.950;2024-01-27T09:34:05;101279.00;;;-3.48;86.95
72909;BME280;61051;62.624;17.950;2024-01-27T09:36:34;101273.03;;;-3.75;86.45
72909;BME280;61051;62.624;17.950;2024-01-27T09:39:02;101274.16;;;-3.94;89.35
72909;BME280;61051;62.624;17.950;2024-01-27T09:41:32;101274.52;;;-4.19;88.91
72909;BME280;61051;62.624;17.950;2024-01-27T09:44:01;101260.23;;;-4.38;89.49
72909;BME280;61051;62.624;17.950;2024-01-27T09:46:31;101259.19;;;-4.52;90.24
72909;BME280;61051;62.624;17.950;2024-01-27T09:49:02;101247.77;;;-4.25;93.47
72909;BME280;61051;62.624;17.950;2024-01-27T09:51:33;101254.40;;;-4.29;92.84
72909;BME280;61051;62.624;17.950;2024-01-27T09:54:02;101270.50;;;-4.08;92.66
72909;BME280;61051;62.624;17.950;2024-01-27T09:56:31;101273.30;;;-4.17;92.37
72909;BME280;61051;62.624;17.950;2024-01-27T09:59:00;101272.70;;;-4.14;92.03
72909;BME280;61051;62.624;17.950;2024-01-27T10:01:28;101278.21;;;-4.06;91.98
72909;BME280;61051;62.624;17.950;2024-01-27T10:03:57;101272.92;;;-3.84;91.50
72909;BME280;61051;62.624;17.950;2024-01-27T10:06:26;101271.65;;;-3.86;90.24
72909;BME280;61051;62.624;17.950;2024-01-27T10:08:55;101274.47;;;-3.90;90.23
72909;BME280;61051;62.624;17.950;2024-01-27T10:11:24;101281.17;;;-4.31;90.01
72909;BME280;61051;62.624;17.950;2024-01-27T10:13:54;101280.05;;;-4.28;92.70
72909;BME280;61051;62.624;17.950;2024-01-27T10:16:22;101278.45;;;-4.19;91.46
72909;BME280;61051;62.624;17.950;2024-01-27T10:18:59;101278.78;;;-4.30;90.13
72909;BME280;61051;62.624;17.950;2024-01-27T10:21:29;101276.03;;;-4.38;91.24
72909;BME280;61051;62.624;17.950;2024-01-27T10:23:57;101274.06;;;-4.38;90.34
72909;BME280;61051;62.624;17.950;2024-01-27T10:26:26;101270.33;;;-4.60;90.42
72909;BME280;61051;62.624;17.950;2024-01-27T10:28:58;101264.06;;;-4.52;92.22
72909;BME280;61051;62.624;17.950;2024-01-27T10:31:27;101265.30;;;-4.26;91.75
72909;BME280;61051;62.624;17.950;2024-01-27T10:33:58;101269.15;;;-4.19;90.53
72909;BME280;61051;62.624;17.950;2024-01-27T10:36:26;101264.83;;;-4.10;88.20
72909;BME280;61051;62.624;17.950;2024-01-27T10:38:54;101253.90;;;-4.01;86.67
72909;BME280;61051;62.624;17.950;2024-01-27T10:41:24;101249.16;;;-4.10;86.36
72909;BME280;61051;62.624;17.950;2024-01-27T10:43:54;101256.72;;;-4.28;88.03
72909;BME280;61051;62.624;17.950;2024-01-27T10:46:26;101258.69;;;-4.58;82.64
72909;BME280;61051;62.624;17.950;2024-01-27T10:48:57;101267.05;;;-4.67;86.25
72909;BME280;61051;62.624;17.950;2024-01-27T10:51:30;101264.43;;;-4.73;89.58
72909;BME280;61051;62.624;17.950;2024-01-27T10:54:02;101259.00;;;-4.62;90.80
72909;BME280;61051;62.624;17.950;2024-01-27T10:56:31;101264.18;;;-4.52;89.29
72909;BME280;61051;62.624;17.950;2024-01-27T10:59:01;101263.40;;;-4.36;88.89
72909;BME280;61051;62.624;17.950;2024-01-27T11:03:28;101263.01;;;-4.12;88.34
72909;BME280;61051;62.624;17.950;2024-01-27T11:05:58;101261.81;;;-4.10;87.54
72909;BME280;61051;62.624;17.950;2024-01-27T11:08:28;101261.71;;;-3.99;87.55
72909;BME280;61051;62.624;17.950;2024-01-27T11:10:58;101245.42;;;-4.04;86.06
72909;BME280;61051;62.624;17.950;2024-01-27T11:13:28;101245.55;;;-4.17;83.81
72909;BME280;61051;62.624;17.950;2024-01-27T11:15:58;101255.26;;;-4.21;85.91
72909;BME280;61051;62.624;17.950;2024-01-27T11:18:27;101261.86;;;-4.09;87.02
72909;BME280;61051;62.624;17.950;2024-01-27T11:20:55;101270.01;;;-3.81;87.33
72909;BME280;61051;62.624;17.950;2024-01-27T11:23:32;101266.86;;;-3.52;85.19
72909;BME280;61051;62.624;17.950;2024-01-27T11:26:04;101271.18;;;-3.32;85.25
72909;BME280;61051;62.624;17.950;2024-01-27T11:28:33;101260.40;;;-3.50;85.59
72909;BME280;61051;62.624;17.950;2024-01-27T11:31:03;101255.83;;;-3.56;85.88
72909;BME280;61051;62.624;17.950;2024-01-27T11:33:32;101257.06;;;-3.48;86.90
72909;BME280;61051;62.624;17.950;2024-01-27T11:36:01;101247.84;;;-3.34;86.85
72909;BME280;61051;62.624;17.950;2024-01-27T11:38:30;101244.55;;;-3.24;86.91
72909;BME280;61051;62.624;17.950;2024-01-27T11:41:00;101234.88;;;-2.95;86.56
72909;BME280;61051;62.624;17.950;2024-01-27T11:43:28;101232.60;;;-2.82;86.47
72909;BME280;61051;62.624;17.950;2024-01-27T11:45:57;101231.75;;;-2.81;81.79
72909;BME280;61051;62.624;17.950;2024-01-27T11:48:26;101219.51;;;-3.15;82.66
72909;BME280;61051;62.624;17.950;2024-01-27T11:51:04;101218.43;;;-3.28;82.70
72909;BME280;61051;62.624;17.950;2024-01-27T11:53:33;101219.77;;;-3.73;81.86
72909;BME280;61051;62.624;17.950;2024-01-27T11:56:02;101220.65;;;-3.94;83.30
72909;BME280;61051;62.624;17.950;2024-01-27T11:58:30;101220.63;;;-3.92;82.63
72909;BME280;61051;62.624;17.950;2024-01-27T12:00:59;101228.63;;;-3.69;84.59
72909;BME280;61051;62.624;17.950;2024-01-27T12:03:27;101228.02;;;-3.65;85.06
72909;BME280;61051;62.624;17.950;2024-01-27T12:05:56;101222.67;;;-3.67;85.64
72909;BME280;61051;62.624;17.950;2024-01-27T12:08:24;101217.15;;;-3.51;85.68
72909;BME280;61051;62.624;17.950;2024-01-27T12:10:52;101209.20;;;-3.59;87.59
72909;BME280;61051;62.624;17.950;2024-01-27T12:13:22;101200.30;;;-3.40;88.40
72909;BME280;61051;62.624;17.950;2024-01-27T12:15:50;101194.91;;;-3.52;82.45
72909;BME280;61051;62.624;17.950;2024-01-27T12:18:19;101192.72;;;-3.70;85.28
72909;BME280;61051;62.624;17.950;2024-01-27T12:20:54;101198.90;;;-3.66;87.45
72909;BME280;61051;62.624;17.950;2024-01-27T12:23:24;101195.07;;;-3.40;86.63
72909;BME280;61051;62.624;17.950;2024-01-27T12:25:53;101191.44;;;-3.11;86.75
72909;BME280;61051;62.624;17.950;2024-01-27T12:28:22;101207.40;;;-2.76;83.70
72909;BME280;61051;62.624;17.950;2024-01-27T12:30:52;101214.73;;;-2.60;84.64
72909;BME280;61051;62.624;17.950;2024-01-27T12:33:22;101206.83;;;-2.36;82.74
72909;BME280;61051;62.624;17.950;2024-01-27T12:35:51;101202.44;;;-2.03;81.42
72909;BME280;61051;62.624;17.950;2024-01-27T12:38:20;101198.03;;;-1.71;81.43
72909;BME280;61051;62.624;17.950;2024-01-27T12:40:48;101194.79;;;-1.42;79.55
72909;BME280;61051;62.624;17.950;2024-01-27T12:43:17;101196.76;;;-1.18;78.15
72909;BME280;61051;62.624;17.950;2024-01-27T12:45:45;101207.06;;;-0.99;77.30
72909;BME280;61051;62.624;17.950;2024-01-27T12:48:14;101209.17;;;-0.92;76.73
72909;BME280;61051;62.624;17.950;2024-01-27T12:50:43;101209.65;;;-0.86;76.13